Terminal Aerodrome Forecast
Issued by NWS

Home | Current Version | Previous Version | Text Only | Print | Product List | Glossary On
Versions: 1 2 3 4 5 6 7 8 9 10 11 12 13 14 15 16 17 18 19 20 21 22 23 24 25
847
FTUS44 KHGX 221502 AAB
TAFLBX
TAF AMD
KLBX 221502Z 2215/2312 08009KT P6SM OVC010
     FM221800 10009KT P6SM VCTS SCT015 BKN025CB
     FM222300 12007KT P6SM BKN035
     FM230600 13006KT P6SM VCSH OVC025=

USA.gov is the U.S. government's official web portal to all federal, state and local government web resources and services.